Time;durP1;ratioP1;P1;durP2;ratioP2;P2;SDS_P1;SDS_P2;PMS_P1;PMS_P2;Temp;Humidity;BMP_temperature;BMP_pressure;BME280_temperature;BME280_humidity;BME280_pressure;Samples;Min_cycle;Max_cycle;Signal;HPM_P1;HPM_P2
2023/08/26 00:02:57;;;;;;;;;2.50;2.50;;;;;;;;2;173929675;173929675;-73
2023/08/26 00:11:40;;;;;;;;;0.50;0.50;;;;;;;;2;270475654;270475654;-74
2023/08/26 00:19:23;;;;;;;;;0.00;0.00;;;;;;;;2;227961596;227961596;-74
2023/08/26 00:28:10;;;;;;;;;0.00;0.00;;;;;;;;2;271704070;271704070;-74
2023/08/26 00:35:54;;;;;;;;;1.50;1.50;;;;;;;;2;228692876;228692876;-74
2023/08/26 00:44:38;;;;;;;;;0.00;0.00;;;;;;;;2;270438506;270438506;-74
2023/08/26 00:52:24;;;;;;;;;0.50;0.50;;;;;;;;2;227817003;227817003;-74
2023/08/26 01:01:09;;;;;;;;;0.00;0.00;;;;;;;;2;272230849;272230849;-74
2023/08/26 01:08:54;;;;;;;;;0.00;0.00;;;;;;;;2;227711076;227711076;-74
2023/08/26 01:17:39;;;;;;;;;0.00;0.00;;;;;;;;2;270743730;270743730;-74
2023/08/26 01:25:21;;;;;;;;;0.00;0.00;;;;;;;;2;225878619;225878619;-74
2023/08/26 01:34:12;;;;;;;;;0.00;0.00;;;;;;;;2;271335914;271335914;-74
2023/08/26 01:41:57;;;;;;;;;0.00;0.00;;;;;;;;2;227228334;227228334;-74
2023/08/26 01:50:42;;;;;;;;;1.00;1.00;;;;;;;;2;270979797;270979797;-74
2023/08/26 01:58:26;;;;;;;;;0.50;0.50;;;;;;;;2;227139078;227139078;-74
2023/08/26 02:07:11;;;;;;;;;0.50;0.50;;;;;;;;2;270763762;270763762;-73
2023/08/26 02:14:54;;;;;;;;;0.00;0.00;;;;;;;;2;227294316;227294316;-74
2023/08/26 02:23:41;;;;;;;;;0.00;0.00;;;;;;;;2;272844289;272844289;-73
2023/08/26 02:31:26;;;;;;;;;0.00;0.00;;;;;;;;2;228110692;228110692;-73
2023/08/26 02:40:09;;;;;;;;;0.00;0.00;;;;;;;;2;271220274;271220274;-73
2023/08/26 02:47:51;;;;;;;;;0.00;0.00;;;;;;;;2;226634423;226634423;-72
2023/08/26 02:56:36;;;;;;;;;0.00;0.00;;;;;;;;2;269809797;269809797;-72
2023/08/26 03:04:20;;;;;;;;;1.00;1.00;;;;;;;;2;227225807;227225807;-73
2023/08/26 03:13:07;;;;;;;;;0.00;0.00;;;;;;;;2;270115495;270115495;-73
2023/08/26 03:20:49;;;;;;;;;2.00;2.00;;;;;;;;2;227104856;227104856;-73
2023/08/26 03:29:33;;;;;;;;;0.50;0.50;;;;;;;;2;270549377;270549377;-73
2023/08/26 03:37:10;;;;;;;;;0.50;0.50;;;;;;;;2;221950209;221950209;-73
2023/08/26 03:41:34;;;;;;;;;0.00;0.00;;;;;;;;2;238344310;238344310;-73
2023/08/26 03:48:07;;;;;;;;;0.00;0.00;;;;;;;;2;208769733;208769733;-73
2023/08/26 03:56:43;;;;;;;;;0.00;0.00;;;;;;;;2;265232752;265232752;-73
2023/08/26 04:04:17;;;;;;;;;0.50;0.50;;;;;;;;2;221790385;221790385;-73
2023/08/26 04:12:59;;;;;;;;;0.50;0.50;;;;;;;;2;268969871;268969871;-72
2023/08/26 04:20:37;;;;;;;;;1.50;1.50;;;;;;;;2;224376155;224376155;-72
2023/08/26 04:29:15;;;;;;;;;7.50;0.00;;;;;;;;2;268203680;268203680;-72
2023/08/26 04:36:52;;;;;;;;;0.00;0.00;;;;;;;;2;225821164;225821164;-72
2023/08/26 04:45:31;;;;;;;;;0.00;0.00;;;;;;;;2;268410778;268410778;-72
2023/08/26 04:53:08;;;;;;;;;0.00;0.00;;;;;;;;2;224858097;224858097;-73
2023/08/26 05:01:44;;;;;;;;;0.50;0.50;;;;;;;;2;265336206;265336206;-71
2023/08/26 05:09:22;;;;;;;;;0.50;0.50;;;;;;;;2;225599274;225599274;-71
2023/08/26 05:17:59;;;;;;;;;0.50;0.50;;;;;;;;2;268186556;268186556;-72
2023/08/26 05:25:38;;;;;;;;;0.00;0.00;;;;;;;;2;225205576;225205576;-72
2023/08/26 05:34:18;;;;;;;;;0.50;0.50;;;;;;;;2;268147163;268147163;-72
2023/08/26 05:41:55;;;;;;;;;0.00;0.00;;;;;;;;2;224307191;224307191;-72
2023/08/26 05:50:32;;;;;;;;;0.00;0.00;;;;;;;;2;266959587;266959587;-72
2023/08/26 05:58:10;;;;;;;;;0.00;0.00;;;;;;;;2;225441921;225441921;-72
2023/08/26 06:06:50;;;;;;;;;0.00;0.00;;;;;;;;2;268701564;268701564;-72
2023/08/26 06:14:30;;;;;;;;;0.00;0.00;;;;;;;;2;223646436;223646436;-73
2023/08/26 06:23:08;;;;;;;;;0.50;0.50;;;;;;;;2;267044930;267044930;-73
2023/08/26 06:30:48;;;;;;;;;0.00;0.00;;;;;;;;2;225822604;225822604;-73
2023/08/26 06:39:27;;;;;;;;;0.00;0.00;;;;;;;;2;267470249;267470249;-73
2023/08/26 06:47:05;;;;;;;;;0.00;0.00;;;;;;;;2;223637337;223637337;-73
2023/08/26 06:55:44;;;;;;;;;0.00;0.00;;;;;;;;2;268074470;268074470;-74
2023/08/26 07:06:35;;;;;;;;;0.00;0.00;;;;;;;;2;224781341;224781341;-73
2023/08/26 07:15:16;;;;;;;;;0.00;0.00;;;;;;;;2;269141609;269141609;-73
2023/08/26 07:22:39;;;;;;;;;0.50;0.50;;;;;;;;2;208728254;208728254;-73
2023/08/26 07:31:14;;;;;;;;;0.00;0.00;;;;;;;;2;264854845;264854845;-73
2023/08/26 07:38:50;;;;;;;;;0.00;0.00;;;;;;;;2;222647671;222647671;-73
2023/08/26 07:47:29;;;;;;;;;0.00;0.00;;;;;;;;2;268211788;268211788;-73
2023/08/26 07:55:07;;;;;;;;;0.00;0.00;;;;;;;;2;224277024;224277024;-71
2023/08/26 08:03:48;;;;;;;;;0.50;0.50;;;;;;;;2;268862620;268862620;-72
2023/08/26 08:11:27;;;;;;;;;0.50;0.50;;;;;;;;2;224761652;224761652;-73
2023/08/26 08:20:05;;;;;;;;;0.00;0.00;;;;;;;;2;268561623;268561623;-73
2023/08/26 08:27:42;;;;;;;;;1.50;1.50;;;;;;;;2;224203599;224203599;-72
2023/08/26 08:36:24;;;;;;;;;3.00;3.00;;;;;;;;2;270284921;270284921;-72
2023/08/26 08:44:09;;;;;;;;;0.00;0.00;;;;;;;;2;227357322;227357322;-73
2023/08/26 08:52:54;;;;;;;;;0.00;0.00;;;;;;;;2;268158635;268158635;-73
2023/08/26 09:00:37;;;;;;;;;0.00;0.00;;;;;;;;2;227452424;227452424;-72
2023/08/26 09:09:18;;;;;;;;;0.00;0.00;;;;;;;;2;268829492;268829492;-73
2023/08/26 09:16:56;;;;;;;;;0.00;0.00;;;;;;;;2;224232002;224232002;-73
2023/08/26 09:25:37;;;;;;;;;0.00;0.00;;;;;;;;2;266242066;266242066;-72
2023/08/26 09:33:17;;;;;;;;;0.00;0.00;;;;;;;;2;224961408;224961408;-72
2023/08/26 09:41:57;;;;;;;;;0.00;0.00;;;;;;;;2;266902609;266902609;-72
2023/08/26 09:49:35;;;;;;;;;0.00;0.00;;;;;;;;2;225230766;225230766;-72
2023/08/26 09:58:15;;;;;;;;;0.00;0.00;;;;;;;;2;269038830;269038830;-73
2023/08/26 10:05:53;;;;;;;;;0.00;0.00;;;;;;;;2;224018690;224018690;-73
2023/08/26 10:14:32;;;;;;;;;1.50;1.50;;;;;;;;2;269449216;269449216;-73
2023/08/26 10:22:13;;;;;;;;;0.50;0.50;;;;;;;;2;225695523;225695523;-72
2023/08/26 10:30:54;;;;;;;;;0.00;0.00;;;;;;;;2;268687770;268687770;-73
2023/08/26 10:38:37;;;;;;;;;0.00;0.00;;;;;;;;2;225804742;225804742;-71
2023/08/26 10:47:48;;;;;;;;;0.50;0.50;;;;;;;;2;267458729;267458729;-72
2023/08/26 10:55:32;;;;;;;;;0.00;0.00;;;;;;;;2;224183033;224183033;-71
2023/08/26 11:04:17;;;;;;;;;0.50;0.50;;;;;;;;2;271250658;271250658;-71
2023/08/26 11:11:58;;;;;;;;;0.50;0.50;;;;;;;;2;225479089;225479089;-72
2023/08/26 11:20:38;;;;;;;;;0.50;0.50;;;;;;;;2;269607027;269607027;-73
2023/08/26 11:26:37;;;;;;;;;0.50;0.50;;;;;;;;2;210454041;210454041;-73
2023/08/26 11:35:11;;;;;;;;;0.00;0.00;;;;;;;;2;264677032;264677032;-73
2023/08/26 11:42:46;;;;;;;;;0.00;0.00;;;;;;;;2;221654331;221654331;-73
2023/08/26 11:51:20;;;;;;;;;1.00;1.00;;;;;;;;2;264882649;264882649;-73
2023/08/26 11:58:53;;;;;;;;;0.50;0.50;;;;;;;;2;222503665;222503665;-73
2023/08/26 12:07:29;;;;;;;;;0.00;0.00;;;;;;;;2;263506883;263506883;-74
2023/08/26 12:15:16;;;;;;;;;0.00;0.00;;;;;;;;2;226698591;226698591;-75
2023/08/26 12:24:03;;;;;;;;;0.00;0.00;;;;;;;;2;269804041;269804041;-74
2023/08/26 12:31:48;;;;;;;;;0.00;0.00;;;;;;;;2;226634721;226634721;-74
2023/08/26 12:40:40;;;;;;;;;0.00;0.00;;;;;;;;2;273964579;273964579;-73
2023/08/26 12:48:26;;;;;;;;;0.00;0.00;;;;;;;;2;228680871;228680871;-73
2023/08/26 12:57:15;;;;;;;;;0.00;0.00;;;;;;;;2;273118197;273118197;-73
2023/08/26 13:04:57;;;;;;;;;0.00;0.00;;;;;;;;2;227869675;227869675;-72
2023/08/26 13:13:43;;;;;;;;;0.00;0.00;;;;;;;;2;271357061;271357061;-73
2023/08/26 13:21:26;;;;;;;;;0.00;0.00;;;;;;;;2;228504251;228504251;-73
2023/08/26 13:30:10;;;;;;;;;0.00;0.00;;;;;;;;2;269166634;269166634;-73
2023/08/26 13:37:50;;;;;;;;;0.50;0.50;;;;;;;;2;226093780;226093780;-73
2023/08/26 13:46:33;;;;;;;;;0.00;0.00;;;;;;;;2;270902838;270902838;-73
2023/08/26 13:54:16;;;;;;;;;0.00;0.00;;;;;;;;2;226115911;226115911;-73
2023/08/26 14:03:00;;;;;;;;;0.00;0.00;;;;;;;;2;270728908;270728908;-73
2023/08/26 14:10:41;;;;;;;;;0.00;0.00;;;;;;;;2;226185523;226185523;-73
2023/08/26 14:19:26;;;;;;;;;0.00;0.00;;;;;;;;2;270482537;270482537;-73
2023/08/26 14:27:07;;;;;;;;;0.00;0.00;;;;;;;;2;227212558;227212558;-73
2023/08/26 14:35:47;;;;;;;;;0.50;0.50;;;;;;;;2;264738919;264738919;-73
2023/08/26 14:43:17;;;;;;;;;0.00;0.00;;;;;;;;2;222977932;222977932;-73
2023/08/26 14:46:22;;;;;;;;;0.00;0.00;;;;;;;;2;184414963;184414963;-73
2023/08/26 14:53:56;;;;;;;;;0.00;0.00;;;;;;;;152407;30;219868774;-73
2023/08/26 14:59:05;;;;;;;;;0.00;0.00;;;;;;;;2;266910425;266910425;-73
2023/08/26 15:01:59;;;;;;;;;0.00;0.00;;;;;;;;303029;30;129750799;-73
2023/08/26 15:10:12;;;;;;;;;;;;;;;;;;319633;30;234070343;-72
2023/08/26 15:15:20;;;;;;;;;0.00;0.00;;;;;;;;2;250155568;250155568;-73
2023/08/26 15:22:35;;;;;;;;;0.00;0.00;;;;;;;;2;213200073;213200073;-72
2023/08/26 15:30:53;;;;;;;;;0.00;0.00;;;;;;;;2;255164934;255164934;-72
2023/08/26 15:38:05;;;;;;;;;0.00;0.00;;;;;;;;2;215688787;215688787;-72
2023/08/26 15:46:42;;;;;;;;;0.00;0.00;;;;;;;;319329;30;209088183;-73
2023/08/26 15:53:59;;;;;;;;;0.00;0.00;;;;;;;;2;230922906;230922906;-73
2023/08/26 16:02:05;;;;;;;;;0.00;0.00;;;;;;;;2;226075140;226075140;-73
2023/08/26 16:09:52;;;;;;;;;0.00;0.00;;;;;;;;2;242799782;242799782;-73
2023/08/26 16:18:11;;;;;;;;;0.00;0.00;;;;;;;;2;231917498;231917498;-72
2023/08/26 16:26:02;;;;;;;;;2.50;0.00;;;;;;;;2;248276422;248276422;-73
2023/08/26 16:34:13;;;;;;;;;0.00;0.00;;;;;;;;2;227736219;227736219;-73
2023/08/26 16:42:03;;;;;;;;;0.00;0.00;;;;;;;;2;247945602;247945602;-74
2023/08/26 16:50:19;;;;;;;;;0.00;0.00;;;;;;;;2;229668014;229668014;-73
2023/08/26 16:58:08;;;;;;;;;0.00;0.00;;;;;;;;2;245858893;245858893;-74
2023/08/26 17:06:24;;;;;;;;;0.00;0.00;;;;;;;;2;230851046;230851046;-73
2023/08/26 17:14:13;;;;;;;;;0.00;0.00;;;;;;;;2;246668954;246668954;-75
2023/08/26 17:22:30;;;;;;;;;0.00;0.00;;;;;;;;2;232754597;232754597;-72
2023/08/26 17:30:22;;;;;;;;;0.00;0.00;;;;;;;;2;249147200;249147200;-73
2023/08/26 17:38:39;;;;;;;;;0.00;0.00;;;;;;;;2;230643146;230643146;-74
2023/08/26 17:43:20;;;;;;;;;0.00;0.00;;;;;;;;2;247992354;247992354;-73
2023/08/26 17:52:06;;;;;;;;;0.00;0.00;;;;;;;;160054;30;249934517;-73
2023/08/26 18:00:23;;;;;;;;;0.00;0.00;;;;;;;;2;231400615;231400615;-73
2023/08/26 18:08:12;;;;;;;;;0.00;0.00;;;;;;;;2;245938432;245938432;-73
2023/08/26 18:16:26;;;;;;;;;0.00;0.00;;;;;;;;2;229571691;229571691;-74
2023/08/26 18:24:18;;;;;;;;;0.00;0.00;;;;;;;;2;247797182;247797182;-74
2023/08/26 18:32:35;;;;;;;;;0.00;0.00;;;;;;;;2;229765526;229765526;-75
2023/08/26 18:40:30;;;;;;;;;0.00;0.00;;;;;;;;2;249738852;249738852;-74
2023/08/26 18:48:49;;;;;;;;;0.00;0.00;;;;;;;;2;233245658;233245658;-75
2023/08/26 18:56:44;;;;;;;;;0.00;0.00;;;;;;;;2;252712225;252712225;-74
2023/08/26 19:05:04;;;;;;;;;0.00;0.00;;;;;;;;2;231436648;231436648;-73
2023/08/26 19:13:02;;;;;;;;;0.50;0.50;;;;;;;;2;250988181;250988181;-74
2023/08/26 19:21:19;;;;;;;;;0.00;0.00;;;;;;;;2;231875465;231875465;-75
2023/08/26 19:29:13;;;;;;;;;0.50;0.50;;;;;;;;2;249700575;249700575;-75
2023/08/26 19:37:33;;;;;;;;;10.50;2.50;;;;;;;;2;232316242;232316242;-74
2023/08/26 19:45:25;;;;;;;;;8.00;0.00;;;;;;;;2;249210760;249210760;-76
2023/08/26 19:53:40;;;;;;;;;3.00;3.00;;;;;;;;2;230592846;230592846;-77
2023/08/26 20:01:35;;;;;;;;;0.00;0.00;;;;;;;;2;250081517;250081517;-78
2023/08/26 20:09:57;;;;;;;;;0.50;0.50;;;;;;;;2;232479340;232479340;-74
2023/08/26 20:17:49;;;;;;;;;0.00;0.00;;;;;;;;2;248840518;248840518;-75
2023/08/26 20:26:11;;;;;;;;;0.00;0.00;;;;;;;;2;231923503;231923503;-75
2023/08/26 20:34:05;;;;;;;;;0.50;0.50;;;;;;;;2;250186863;250186863;-78
2023/08/26 20:42:25;;;;;;;;;0.00;0.00;;;;;;;;2;233951244;233951244;-76
2023/08/26 20:50:18;;;;;;;;;1.00;1.00;;;;;;;;2;249681099;249681099;-77
2023/08/26 20:58:38;;;;;;;;;0.00;0.00;;;;;;;;2;232804273;232804273;-79
2023/08/26 21:06:37;;;;;;;;;0.50;0.50;;;;;;;;2;251791501;251791501;-79
2023/08/26 21:15:00;;;;;;;;;0.00;0.00;;;;;;;;2;234489035;234489035;-76
2023/08/26 21:22:54;;;;;;;;;0.00;0.00;;;;;;;;2;248823892;248823892;-76
2023/08/26 21:31:14;;;;;;;;;0.00;0.00;;;;;;;;2;232959327;232959327;-77
2023/08/26 21:39:09;;;;;;;;;0.00;0.00;;;;;;;;2;249948698;249948698;-78
2023/08/26 21:47:33;;;;;;;;;1.50;1.50;;;;;;;;2;235108821;235108821;-76
2023/08/26 21:55:29;;;;;;;;;0.00;0.00;;;;;;;;2;251400075;251400075;-76
2023/08/26 22:03:48;;;;;;;;;0.00;0.00;;;;;;;;2;234202572;234202572;-76
2023/08/26 22:11:42;;;;;;;;;0.00;0.00;;;;;;;;2;249434668;249434668;-76
2023/08/26 22:20:00;;;;;;;;;0.50;0.50;;;;;;;;2;232824772;232824772;-75
2023/08/26 22:27:55;;;;;;;;;0.00;0.00;;;;;;;;2;249367877;249367877;-76
2023/08/26 22:36:17;;;;;;;;;0.00;0.00;;;;;;;;2;234570079;234570079;-76
2023/08/26 22:44:10;;;;;;;;;0.00;0.00;;;;;;;;2;249048750;249048750;-76
2023/08/26 22:52:28;;;;;;;;;0.00;0.00;;;;;;;;2;230493519;230493519;-76
2023/08/26 23:00:25;;;;;;;;;2.50;0.00;;;;;;;;2;250628541;250628541;-75
2023/08/26 23:08:48;;;;;;;;;0.50;0.50;;;;;;;;2;232704037;232704037;-76
2023/08/26 23:16:45;;;;;;;;;0.00;0.00;;;;;;;;2;251375769;251375769;-76
2023/08/26 23:25:07;;;;;;;;;0.00;0.00;;;;;;;;2;234426349;234426349;-76
2023/08/26 23:33:02;;;;;;;;;0.00;0.00;;;;;;;;2;249711679;249711679;-75
2023/08/26 23:41:23;;;;;;;;;0.50;0.50;;;;;;;;2;233446586;233446586;-75
2023/08/26 23:49:16;;;;;;;;;0.00;0.00;;;;;;;;2;250254016;250254016;-76
2023/08/26 23:57:38;;;;;;;;;0.00;0.00;;;;;;;;2;234577077;234577077;-76
